createdAt,value
2019-05-21T00:00:03.112Z,1009.4
2019-05-21T00:05:02.944Z,1009.22
2019-05-21T00:10:03.382Z,1009.27
2019-05-21T00:15:02.914Z,1009.26
2019-05-21T00:20:03.458Z,1009.26
2019-05-21T00:25:02.978Z,1009.31
2019-05-21T00:30:02.775Z,1009.23
2019-05-21T00:35:03.509Z,1009.28
2019-05-21T00:40:03.063Z,1009.26
2019-05-21T00:45:02.584Z,1009.32
2019-05-21T00:50:03.149Z,1009.27
2019-05-21T00:55:02.663Z,1009.26
2019-05-21T01:00:03.248Z,1009.3
2019-05-21T01:05:02.834Z,1009.2
2019-05-21T01:10:03.387Z,1009.19
2019-05-21T01:15:03.015Z,1009.09
2019-05-21T01:20:02.527Z,1009.06
2019-05-21T01:25:03.076Z,1008.94
2019-05-21T01:30:02.583Z,1008.93
2019-05-21T01:35:16.016Z,1008.95
2019-05-21T01:40:02.868Z,1008.91
2019-05-21T01:45:03.414Z,1008.85
2019-05-21T01:50:02.918Z,1008.92
2019-05-21T01:55:03.481Z,1008.89
2019-05-21T02:00:02.989Z,1008.87
2019-05-21T02:05:02.517Z,1008.89
2019-05-21T02:10:03.060Z,1008.96
2019-05-21T02:15:02.586Z,1008.95
2019-05-21T02:20:03.042Z,1009.0
2019-05-21T02:25:02.549Z,1009.07
2019-05-21T02:30:03.699Z,1009.12
2019-05-21T02:35:02.503Z,1009.25
2019-05-21T02:40:03.061Z,1009.24
2019-05-21T02:45:02.582Z,1009.34
2019-05-21T02:50:03.148Z,1009.4
2019-05-21T02:55:02.684Z,1009.51
2019-05-21T03:00:03.308Z,1009.45
2019-05-21T03:05:02.905Z,1009.48
2019-05-21T03:10:03.487Z,1009.56
2019-05-21T03:15:02.981Z,1009.53
2019-05-21T03:20:02.509Z,1009.56
2019-05-21T03:25:03.119Z,1009.61
2019-05-21T03:30:02.742Z,1009.64
2019-05-21T03:35:03.224Z,1009.68
2019-05-21T03:40:02.787Z,1009.73
2019-05-21T03:45:07.350Z,1009.76
2019-05-21T03:50:02.500Z,1009.89
2019-05-21T03:55:03.551Z,1009.93
2019-05-21T04:00:03.188Z,1010.0
2019-05-21T04:05:02.702Z,1009.94
2019-05-21T04:10:03.317Z,1009.96
2019-05-21T04:15:02.902Z,1009.98
2019-05-21T04:20:03.431Z,1009.98
2019-05-21T04:25:02.945Z,1009.98
2019-05-21T04:30:03.092Z,1010.05
2019-05-21T04:35:02.591Z,1010.18
2019-05-21T04:40:03.052Z,1010.16
2019-05-21T04:45:02.559Z,1010.17
2019-05-21T04:50:03.052Z,1010.24
2019-05-21T04:55:02.544Z,1010.23
2019-05-21T05:00:03.002Z,1010.23
2019-05-21T05:05:02.486Z,1010.23
2019-05-21T05:10:03.036Z,1010.17
2019-05-21T05:15:02.563Z,1010.18
2019-05-21T05:20:03.041Z,1010.19
2019-05-21T05:25:02.531Z,1010.33
2019-05-21T05:30:03.065Z,1010.25
2019-05-21T05:35:02.598Z,1010.25
2019-05-21T05:40:03.163Z,1010.2
2019-05-21T05:45:02.646Z,1010.26
2019-05-21T05:50:02.384Z,1010.26
2019-05-21T05:55:02.920Z,1010.15
2019-05-21T06:00:03.373Z,1010.26
2019-05-21T06:05:02.922Z,1010.24
2019-05-21T06:10:02.555Z,1010.35
2019-05-21T06:15:03.369Z,1010.54
2019-05-21T06:20:02.990Z,1010.47
2019-05-21T06:25:02.596Z,1010.48
2019-05-21T06:30:03.159Z,1010.48
2019-05-21T06:35:02.690Z,1010.58
2019-05-21T06:40:03.253Z,1010.63
2019-05-21T06:45:03.485Z,1010.66
2019-05-21T06:50:03.203Z,1010.74
2019-05-21T06:55:02.708Z,1010.78
2019-05-21T07:00:03.285Z,1010.83
2019-05-21T07:05:02.776Z,1010.99
2019-05-21T07:10:03.336Z,1011.08
2019-05-21T07:15:02.844Z,1011.17
2019-05-21T07:20:03.402Z,1011.14
2019-05-21T07:25:02.913Z,1011.16
2019-05-21T07:30:03.461Z,1011.25
2019-05-21T07:35:02.986Z,1011.14
2019-05-21T07:40:02.503Z,1011.2
2019-05-21T07:45:03.045Z,1011.27
2019-05-21T07:50:02.569Z,1011.35
2019-05-21T07:55:03.132Z,1011.4
2019-05-21T08:00:02.637Z,1011.43
2019-05-21T08:05:03.203Z,1011.49
2019-05-21T08:10:02.871Z,1011.54
2019-05-21T08:15:03.364Z,1011.62
2019-05-21T08:20:09.231Z,1011.49
2019-05-21T08:25:02.622Z,1011.63
2019-05-21T08:30:03.147Z,1011.68
2019-05-21T08:35:02.848Z,1011.78
2019-05-21T08:40:03.433Z,1011.81
2019-05-21T08:45:03.717Z,1011.82
2019-05-21T08:50:02.562Z,1011.82
2019-05-21T08:55:03.102Z,1011.85
2019-05-21T09:00:02.645Z,1011.79
2019-05-21T09:05:03.184Z,1011.83
2019-05-21T09:10:02.695Z,1011.85
2019-05-21T09:15:03.237Z,1011.94
2019-05-21T09:20:02.863Z,1012.0
2019-05-21T09:25:04.017Z,1012.08
2019-05-21T09:30:02.746Z,1012.11
2019-05-21T09:35:03.291Z,1012.02
2019-05-21T09:40:02.906Z,1012.14
2019-05-21T09:45:03.460Z,1012.24
2019-05-21T09:50:03.409Z,1012.3
2019-05-21T09:55:03.409Z,1012.34
2019-05-21T10:00:03.620Z,1012.31
2019-05-21T10:05:02.464Z,1012.39
2019-05-21T10:10:03.017Z,1012.45
2019-05-21T10:15:02.532Z,1012.48
2019-05-21T10:20:03.020Z,1012.54
2019-05-21T10:25:02.482Z,1012.58
2019-05-21T10:30:03.112Z,1012.62
2019-05-21T10:35:03.240Z,1012.63
2019-05-21T10:40:03.414Z,1012.61
2019-05-21T10:45:02.935Z,1012.65
2019-05-21T10:50:03.468Z,1012.73
2019-05-21T10:55:03.001Z,1012.76
2019-05-21T11:00:02.522Z,1012.81
2019-05-21T11:05:03.069Z,1012.8
2019-05-21T11:10:02.764Z,1012.99
2019-05-21T11:15:03.357Z,1012.97
2019-05-21T11:20:02.864Z,1013.03
2019-05-21T11:25:03.396Z,1012.99
2019-05-21T11:30:02.925Z,1013.07
2019-05-21T11:35:03.470Z,1012.98
2019-05-21T11:40:02.985Z,1013.06
2019-05-21T11:45:02.556Z,1013.16
2019-05-21T11:50:03.167Z,1013.22
2019-05-21T11:55:02.612Z,1013.21
2019-05-21T12:00:03.117Z,1013.19
2019-05-21T12:05:02.645Z,1013.25
2019-05-21T12:10:03.107Z,1013.25
2019-05-21T12:15:02.610Z,1013.35
2019-05-21T12:20:03.155Z,1013.47
2019-05-21T12:25:02.668Z,1013.56
2019-05-21T12:30:03.220Z,1013.6
2019-05-21T12:35:02.870Z,1013.62
2019-05-21T12:40:02.473Z,1013.7
2019-05-21T12:45:03.026Z,1013.64
2019-05-21T12:50:02.537Z,1013.72
2019-05-21T12:55:02.986Z,1013.75
2019-05-21T13:00:01.697Z,1013.76
2019-05-21T13:05:03.261Z,1013.85
2019-05-21T13:10:02.773Z,1013.93
2019-05-21T13:15:03.313Z,1013.9
2019-05-21T13:20:04.011Z,1013.99
2019-05-21T13:25:02.974Z,1014.04
2019-05-21T13:30:02.604Z,1014.07
2019-05-21T13:35:03.481Z,1014.12
2019-05-21T13:40:03.096Z,1014.18
2019-05-21T13:45:02.651Z,1014.27
2019-05-21T13:50:03.142Z,1014.3
2019-05-21T13:55:02.654Z,1014.34
2019-05-21T14:00:03.135Z,1014.37
2019-05-21T14:05:03.163Z,1014.34
2019-05-21T14:10:14.008Z,1014.47
2019-05-21T14:15:03.306Z,1014.44
2019-05-21T14:20:02.867Z,1014.51
2019-05-21T14:25:03.389Z,1014.58
2019-05-21T14:30:02.885Z,1014.53
2019-05-21T14:35:03.448Z,1014.53
2019-05-21T14:40:02.973Z,1014.56
2019-05-21T14:45:02.515Z,1014.54
2019-05-21T14:50:03.025Z,1014.55
2019-05-21T14:55:03.299Z,1014.67
2019-05-21T15:00:02.618Z,1014.69
2019-05-21T15:05:03.120Z,1014.73
2019-05-21T15:10:02.657Z,1014.73
2019-05-21T15:15:03.323Z,1014.67
2019-05-21T15:20:03.139Z,1014.8
2019-05-21T15:25:02.645Z,1014.81
2019-05-21T15:30:03.217Z,1014.88
2019-05-21T15:35:02.766Z,1014.93
2019-05-21T15:40:03.254Z,1014.91
2019-05-21T15:45:02.781Z,1014.94
2019-05-21T15:50:03.339Z,1014.88
2019-05-21T15:55:06.758Z,1014.94
2019-05-21T16:00:02.923Z,1014.9
2019-05-21T16:05:03.447Z,1015.05
2019-05-21T16:10:02.941Z,1015.07
2019-05-21T16:15:03.550Z,1015.01
2019-05-21T16:20:03.319Z,1015.01
2019-05-21T16:25:02.841Z,1014.99
2019-05-21T16:30:03.385Z,1015.05
2019-05-21T16:35:02.921Z,1015.06
2019-05-21T16:40:03.493Z,1015.08
2019-05-21T16:45:02.923Z,1015.12
2019-05-21T16:50:03.564Z,1015.21
2019-05-21T16:55:03.190Z,1015.15
2019-05-21T17:00:02.671Z,1015.17
2019-05-21T17:05:03.307Z,1015.1
2019-05-21T17:10:02.839Z,1015.26
2019-05-21T17:15:03.393Z,1015.28
2019-05-21T17:20:03.256Z,1015.28
2019-05-21T17:25:02.939Z,1015.35
2019-05-21T17:30:03.523Z,1015.38
2019-05-21T17:35:03.004Z,1015.46
2019-05-21T17:40:02.509Z,1015.43
2019-05-21T17:45:03.075Z,1015.47
2019-05-21T17:50:02.607Z,1015.49
2019-05-21T17:55:03.137Z,1015.48
2019-05-21T18:00:02.659Z,1015.51
2019-05-21T18:05:03.205Z,1015.6
2019-05-21T18:10:02.691Z,1015.5
2019-05-21T18:15:03.295Z,1015.51
2019-05-21T18:20:02.789Z,1015.6
2019-05-21T18:25:03.354Z,1015.64
2019-05-21T18:30:03.924Z,1015.73
2019-05-21T18:35:03.036Z,1015.79
2019-05-21T18:40:01.743Z,1015.85
2019-05-21T18:45:03.276Z,1015.78
2019-05-21T18:50:02.782Z,1015.79
2019-05-21T18:55:03.229Z,1015.88
2019-05-21T19:00:02.756Z,1015.9
2019-05-21T19:05:03.306Z,1015.96
2019-05-21T19:10:02.847Z,1016.02
2019-05-21T19:15:03.398Z,1016.08
2019-05-21T19:20:02.950Z,1016.2
2019-05-21T19:25:02.422Z,1016.17
2019-05-21T19:30:02.952Z,1016.23
2019-05-21T19:35:03.425Z,1016.29
2019-05-21T19:40:02.929Z,1016.28
2019-05-21T19:45:03.485Z,1016.34
2019-05-21T19:50:03.086Z,1016.46
2019-05-21T19:55:02.617Z,1016.56
2019-05-21T20:00:03.155Z,1016.6
2019-05-21T20:05:02.680Z,1016.64
2019-05-21T20:10:03.236Z,1016.67
2019-05-21T20:15:02.682Z,1016.75
2019-05-21T20:20:03.195Z,1016.73
2019-05-21T20:25:02.681Z,1016.78
2019-05-21T20:30:12.178Z,1016.82
2019-05-21T20:35:02.565Z,1016.74
2019-05-21T20:40:03.156Z,1016.81
2019-05-21T20:45:02.643Z,1016.86
2019-05-21T20:50:03.197Z,1016.84
2019-05-21T20:55:02.707Z,1016.85
2019-05-21T21:00:03.290Z,1016.85
2019-05-21T21:05:02.892Z,1016.88
2019-05-21T21:10:02.545Z,1016.86
2019-05-21T21:15:03.116Z,1016.88
2019-05-21T21:20:02.604Z,1016.94
2019-05-21T21:25:03.162Z,1016.95
2019-05-21T21:30:02.637Z,1016.93
2019-05-21T21:35:02.447Z,1016.96
2019-05-21T21:40:03.006Z,1016.94
2019-05-21T21:45:02.550Z,1016.96
2019-05-21T21:50:03.100Z,1017.0
2019-05-21T21:55:02.594Z,1017.06
2019-05-21T22:00:06.099Z,1016.97
2019-05-21T22:05:02.711Z,1017.02
2019-05-21T22:10:03.278Z,1016.98
2019-05-21T22:15:02.759Z,1016.97
2019-05-21T22:20:03.264Z,1016.99
2019-05-21T22:25:02.812Z,1016.98
2019-05-21T22:30:03.395Z,1016.96
2019-05-21T22:35:02.869Z,1017.04
2019-05-21T22:40:03.450Z,1017.05
2019-05-21T22:45:08.333Z,1017.07
2019-05-21T22:50:03.402Z,1017.06
2019-05-21T22:55:02.909Z,1017.05
2019-05-21T23:00:08.209Z,1017.09
2019-05-21T23:05:02.573Z,1017.15
2019-05-21T23:10:03.117Z,1017.21
2019-05-21T23:15:02.670Z,1017.24
2019-05-21T23:20:03.192Z,1017.21
2019-05-21T23:25:02.718Z,1017.16
2019-05-21T23:30:03.256Z,1017.14
2019-05-21T23:35:02.736Z,1017.04
2019-05-21T23:40:03.220Z,1017.0
2019-05-21T23:45:02.749Z,1017.09
2019-05-21T23:50:03.244Z,1017.11
2019-05-21T23:55:02.696Z,1017.1
